Date,TemperatureHighF,TemperatureAvgF,TemperatureLowF,DewpointHighF,DewpointAvgF,DewpointLowF,HumidityHigh,HumidityAvg,HumidityLow,PressureMaxIn,PressureMinIn,WindSpeedMaxMPH,WindSpeedAvgMPH,GustSpeedMaxMPH,PrecipitationSumIn
2013-4-1,52.5,37.8,28.6,35.0,25.0,19.0,90,63,36,29.91,29.83,8,0,8,0.00
2013-4-2,52.0,37.4,27.3,30.2,23.4,18.6,79,59,37,29.88,29.85,5,0,5,0.00
2013-4-3,43.5,37.7,34.3,34.7,29.1,24.4,87,72,51,29.91,29.85,10,0,10,0.00
2013-4-4,41.2,37.5,35.1,32.0,27.2,20.7,84,67,49,29.85,29.50,13,0,13,0.00
2013-4-5,44.4,38.7,35.8,23.8,20.6,18.0,58,48,41,29.50,29.26,8,0,8,0.00
2013-4-6,49.6,39.2,29.8,24.1,17.8,9.6,60,42,33,29.32,29.21,0,0,0,0.00
2013-4-7,34.0,27.8,23.4,10.7,6.8,3.0,47,40,31,29.56,29.32,15,1,15,0.00
2013-4-8,35.2,28.3,20.3,12.4,4.1,-3.0,44,35,30,29.53,29.15,20,3,20,0.00
2013-4-9,30.4,21.5,16.7,5.2,-0.2,-5.3,45,38,31,29.44,29.03,17,2,17,0.00
2013-4-10,34.9,23.9,16.0,7.3,-0.3,-5.7,42,34,28,29.80,29.44,15,1,16,0.00
2013-4-11,32.0,22.5,15.4,12.6,5.0,-0.6,59,47,34,29.91,29.77,10,1,10,0.00
2013-4-12,38.7,27.4,18.7,10.5,4.8,-0.1,49,38,27,29.91,29.85,15,1,15,0.00
2013-4-13,43.2,36.0,26.8,11.8,5.3,-0.9,36,27,18,30.21,30.06,13,1,13,0.00
2013-4-14,52.9,35.4,24.6,21.7,11.4,3.0,50,37,24,30.27,30.18,14,0,14,0.00
2013-4-15,50.2,38.3,27.5,24.5,19.0,12.5,58,46,32,30.27,30.00,10,0,10,0.00
2013-4-16,46.6,38.8,28.6,20.1,12.2,7.4,45,34,26,29.94,29.88,11,1,11,0.00
2013-4-17,53.4,34.5,22.8,20.1,12.2,6.3,53,40,19,29.94,29.88,8,0,8,0.00
2013-4-18,52.3,35.3,25.3,26.2,15.1,10.6,54,44,31,29.91,29.88,0,0,0,0.00
2013-4-19,50.7,36.0,25.0,23.9,16.2,12.8,67,47,27,30.09,29.91,0,0,0,0.00
2013-4-20,41.2,36.6,33.6,32.2,22.4,16.5,84,57,40,30.12,30.06,0,0,0,0.00
2013-4-21,38.7,35.5,33.8,34.2,30.9,27.4,96,84,66,30.12,29.91,20,1,20,0.00
2013-4-22,40.8,37.4,34.5,38.2,33.3,27.8,98,85,71,30.21,30.09,10,0,10,0.00
2013-4-23,43.5,40.3,38.7,41.2,38.9,36.4,98,95,89,30.15,30.03,0,0,0,0.00
2013-4-24,58.6,44.4,33.1,42.2,34.7,26.4,92,71,41,30.15,29.65,0,0,0,0.00
2013-4-25,49.5,43.0,37.4,26.4,18.0,9.5,48,37,29,29.65,29.44,15,2,15,0.00
2013-4-26,55.4,43.0,35.2,25.3,13.7,7.2,39,30,26,29.50,29.32,17,2,17,0.00
2013-4-27,48.6,39.5,34.7,23.1,16.8,11.4,61,40,31,29.71,29.35,15,2,15,0.00
2013-4-28,50.5,41.4,33.4,20.1,15.2,12.3,45,34,28,29.97,29.71,13,1,13,0.00
2013-4-29,63.5,41.0,28.2,26.6,19.4,13.8,58,43,24,30.00,29.91,7,0,7,0.00
2013-4-30,58.1,45.5,35.6,29.7,24.0,18.3,54,43,29,29.91,29.47,8,0,8,0.00